sensor_id;sensor_type;location;lat;lon;timestamp;temperature;humidity
70826;SHT31;58446;41.490;22.098;2023-11-19T00:00:42;8.29;51.52
70826;SHT31;58446;41.490;22.098;2023-11-19T00:03:08;8.29;51.48
70826;SHT31;58446;41.490;22.098;2023-11-19T00:05:34;8.26;51.67
70826;SHT31;58446;41.490;22.098;2023-11-19T00:07:59;8.25;51.86
70826;SHT31;58446;41.490;22.098;2023-11-19T00:10:25;8.34;51.72
70826;SHT31;58446;41.490;22.098;2023-11-19T00:12:51;8.26;51.58
70826;SHT31;58446;41.490;22.098;2023-11-19T00:15:17;8.24;51.83
70826;SHT31;58446;41.490;22.098;2023-11-19T00:17:47;8.28;51.77
70826;SHT31;58446;41.490;22.098;2023-11-19T00:20:15;8.26;51.75
70826;SHT31;58446;41.490;22.098;2023-11-19T00:22:42;8.25;51.48
70826;SHT31;58446;41.490;22.098;2023-11-19T00:25:10;8.24;51.49
70826;SHT31;58446;41.490;22.098;2023-11-19T00:27:36;8.16;51.09
70826;SHT31;58446;41.490;22.098;2023-11-19T00:30:06;8.20;51.40
70826;SHT31;58446;41.490;22.098;2023-11-19T00:32:33;8.18;51.19
70826;SHT31;58446;41.490;22.098;2023-11-19T00:34:59;8.15;50.92
70826;SHT31;58446;41.490;22.098;2023-11-19T00:37:24;8.12;51.16
70826;SHT31;58446;41.490;22.098;2023-11-19T00:39:50;8.15;51.28
70826;SHT31;58446;41.490;22.098;2023-11-19T00:42:17;8.14;51.56
70826;SHT31;58446;41.490;22.098;2023-11-19T00:44:43;8.18;51.66
70826;SHT31;58446;41.490;22.098;2023-11-19T00:47:08;8.12;51.42
70826;SHT31;58446;41.490;22.098;2023-11-19T00:49:34;8.08;51.56
70826;SHT31;58446;41.490;22.098;2023-11-19T00:52:00;8.16;51.64
70826;SHT31;58446;41.490;22.098;2023-11-19T00:54:27;8.20;51.55
70826;SHT31;58446;41.490;22.098;2023-11-19T00:56:53;8.18;51.76
70826;SHT31;58446;41.490;22.098;2023-11-19T00:59:19;8.22;51.57
70826;SHT31;58446;41.490;22.098;2023-11-19T01:01:45;8.21;51.79
70826;SHT31;58446;41.490;22.098;2023-11-19T01:04:13;8.24;51.48
70826;SHT31;58446;41.490;22.098;2023-11-19T01:06:40;8.22;51.39
70826;SHT31;58446;41.490;22.098;2023-11-19T01:09:05;8.22;51.38
70826;SHT31;58446;41.490;22.098;2023-11-19T01:11:31;8.21;51.15
70826;SHT31;58446;41.490;22.098;2023-11-19T01:13:57;8.24;51.27
70826;SHT31;58446;41.490;22.098;2023-11-19T01:16:22;8.22;51.52
70826;SHT31;58446;41.490;22.098;2023-11-19T01:18:48;8.16;51.06
70826;SHT31;58446;41.490;22.098;2023-11-19T01:21:14;8.14;51.29
70826;SHT31;58446;41.490;22.098;2023-11-19T01:23:41;8.15;51.52
70826;SHT31;58446;41.490;22.098;2023-11-19T01:26:10;8.20;51.21
70826;SHT31;58446;41.490;22.098;2023-11-19T01:28:36;8.22;51.40
70826;SHT31;58446;41.490;22.098;2023-11-19T01:31:02;8.20;51.03
70826;SHT31;58446;41.490;22.098;2023-11-19T01:33:29;8.18;51.14
70826;SHT31;58446;41.490;22.098;2023-11-19T01:35:55;8.14;51.05
70826;SHT31;58446;41.490;22.098;2023-11-19T01:38:22;8.14;51.05
70826;SHT31;58446;41.490;22.098;2023-11-19T01:40:48;8.15;50.90
70826;SHT31;58446;41.490;22.098;2023-11-19T01:43:34;8.11;50.55
70826;SHT31;58446;41.490;22.098;2023-11-19T01:46:00;8.14;50.92
70826;SHT31;58446;41.490;22.098;2023-11-19T01:48:27;8.14;50.45
70826;SHT31;58446;41.490;22.098;2023-11-19T01:50:53;8.18;50.71
70826;SHT31;58446;41.490;22.098;2023-11-19T01:53:19;8.12;50.81
70826;SHT31;58446;41.490;22.098;2023-11-19T01:55:48;8.15;50.67
70826;SHT31;58446;41.490;22.098;2023-11-19T01:58:14;8.14;50.40
70826;SHT31;58446;41.490;22.098;2023-11-19T02:00:41;8.11;50.16
70826;SHT31;58446;41.490;22.098;2023-11-19T02:03:07;8.12;50.28
70826;SHT31;58446;41.490;22.098;2023-11-19T02:05:33;8.06;50.37
70826;SHT31;58446;41.490;22.098;2023-11-19T02:08:01;8.05;50.27
70826;SHT31;58446;41.490;22.098;2023-11-19T02:10:27;8.11;50.77
70826;SHT31;58446;41.490;22.098;2023-11-19T02:12:52;8.06;50.89
70826;SHT31;58446;41.490;22.098;2023-11-19T02:15:18;8.06;50.24
70826;SHT31;58446;41.490;22.098;2023-11-19T02:17:44;8.09;50.65
70826;SHT31;58446;41.490;22.098;2023-11-19T02:20:10;8.05;50.68
70826;SHT31;58446;41.490;22.098;2023-11-19T02:22:40;8.11;50.73
70826;SHT31;58446;41.490;22.098;2023-11-19T02:25:34;8.04;50.46
70826;SHT31;58446;41.490;22.098;2023-11-19T02:28:01;8.01;50.56
70826;SHT31;58446;41.490;22.098;2023-11-19T02:30:27;7.95;50.53
70826;SHT31;58446;41.490;22.098;2023-11-19T02:32:57;7.91;50.61
70826;SHT31;58446;41.490;22.098;2023-11-19T02:35:25;7.90;50.23
70826;SHT31;58446;41.490;22.098;2023-11-19T02:37:51;7.85;50.69
70826;SHT31;58446;41.490;22.098;2023-11-19T02:40:17;7.93;50.90
70826;SHT31;58446;41.490;22.098;2023-11-19T02:42:43;7.95;50.75
70826;SHT31;58446;41.490;22.098;2023-11-19T02:45:09;7.94;50.84
70826;SHT31;58446;41.490;22.098;2023-11-19T02:47:43;7.94;51.24
70826;SHT31;58446;41.490;22.098;2023-11-19T02:50:12;7.94;50.94
70826;SHT31;58446;41.490;22.098;2023-11-19T02:52:44;7.90;50.74
70826;SHT31;58446;41.490;22.098;2023-11-19T02:55:12;7.94;50.90
70826;SHT31;58446;41.490;22.098;2023-11-19T02:57:41;7.97;50.76
70826;SHT31;58446;41.490;22.098;2023-11-19T03:00:20;7.93;50.46
70826;SHT31;58446;41.490;22.098;2023-11-19T03:02:49;7.95;50.70
70826;SHT31;58446;41.490;22.098;2023-11-19T03:05:24;7.94;50.82
70826;SHT31;58446;41.490;22.098;2023-11-19T03:07:50;7.83;50.69
70826;SHT31;58446;41.490;22.098;2023-11-19T03:10:17;7.84;50.86
70826;SHT31;58446;41.490;22.098;2023-11-19T03:12:44;7.87;51.06
70826;SHT31;58446;41.490;22.098;2023-11-19T03:15:11;7.93;50.98
70826;SHT31;58446;41.490;22.098;2023-11-19T03:17:40;7.90;50.84
70826;SHT31;58446;41.490;22.098;2023-11-19T03:20:07;7.90;51.08
70826;SHT31;58446;41.490;22.098;2023-11-19T03:22:40;7.95;51.03
70826;SHT31;58446;41.490;22.098;2023-11-19T03:25:09;7.95;50.97
70826;SHT31;58446;41.490;22.098;2023-11-19T03:27:36;7.98;51.06
70826;SHT31;58446;41.490;22.098;2023-11-19T03:30:03;8.04;51.01
70826;SHT31;58446;41.490;22.098;2023-11-19T03:32:31;7.95;51.03
70826;SHT31;58446;41.490;22.098;2023-11-19T03:34:57;7.95;51.12
70826;SHT31;58446;41.490;22.098;2023-11-19T03:37:23;7.95;51.22
70826;SHT31;58446;41.490;22.098;2023-11-19T03:39:49;7.85;51.75
70826;SHT31;58446;41.490;22.098;2023-11-19T03:42:15;7.84;51.28
70826;SHT31;58446;41.490;22.098;2023-11-19T03:44:40;7.91;51.73
70826;SHT31;58446;41.490;22.098;2023-11-19T03:47:06;7.90;51.15
70826;SHT31;58446;41.490;22.098;2023-11-19T03:49:32;7.91;51.35
70826;SHT31;58446;41.490;22.098;2023-11-19T03:51:57;7.85;51.22
70826;SHT31;58446;41.490;22.098;2023-11-19T03:54:23;7.78;50.90
70826;SHT31;58446;41.490;22.098;2023-11-19T03:56:49;7.77;50.67
70826;SHT31;58446;41.490;22.098;2023-11-19T03:59:14;7.74;50.63
70826;SHT31;58446;41.490;22.098;2023-11-19T04:01:41;7.78;50.92
70826;SHT31;58446;41.490;22.098;2023-11-19T04:04:06;7.73;50.79
70826;SHT31;58446;41.490;22.098;2023-11-19T04:06:32;7.77;50.98
70826;SHT31;58446;41.490;22.098;2023-11-19T04:08:58;7.80;50.87
70826;SHT31;58446;41.490;22.098;2023-11-19T04:11:23;7.77;50.88
70826;SHT31;58446;41.490;22.098;2023-11-19T04:13:49;7.81;51.08
70826;SHT31;58446;41.490;22.098;2023-11-19T04:16:15;7.80;51.13
70826;SHT31;58446;41.490;22.098;2023-11-19T04:18:40;7.78;50.88
70826;SHT31;58446;41.490;22.098;2023-11-19T04:21:07;7.83;50.94
70826;SHT31;58446;41.490;22.098;2023-11-19T04:23:32;7.83;50.94
70826;SHT31;58446;41.490;22.098;2023-11-19T04:25:58;7.84;51.03
70826;SHT31;58446;41.490;22.098;2023-11-19T04:28:27;7.90;51.00
70826;SHT31;58446;41.490;22.098;2023-11-19T04:30:52;7.93;50.99
70826;SHT31;58446;41.490;22.098;2023-11-19T04:33:18;7.88;50.56
70826;SHT31;58446;41.490;22.098;2023-11-19T04:35:44;7.81;50.66
70826;SHT31;58446;41.490;22.098;2023-11-19T04:38:10;7.87;50.86
70826;SHT31;58446;41.490;22.098;2023-11-19T04:40:36;7.87;50.85
70826;SHT31;58446;41.490;22.098;2023-11-19T04:43:02;7.80;50.46
70826;SHT31;58446;41.490;22.098;2023-11-19T04:45:27;7.83;50.67
70826;SHT31;58446;41.490;22.098;2023-11-19T04:47:53;7.83;50.72
70826;SHT31;58446;41.490;22.098;2023-11-19T04:50:19;7.78;50.48
70826;SHT31;58446;41.490;22.098;2023-11-19T04:52:44;7.80;50.80
70826;SHT31;58446;41.490;22.098;2023-11-19T04:55:11;7.78;50.85
70826;SHT31;58446;41.490;22.098;2023-11-19T04:57:37;7.80;50.98
70826;SHT31;58446;41.490;22.098;2023-11-19T05:00:05;7.75;51.32
70826;SHT31;58446;41.490;22.098;2023-11-19T05:02:30;7.64;51.74
70826;SHT31;58446;41.490;22.098;2023-11-19T05:04:56;7.64;52.01
70826;SHT31;58446;41.490;22.098;2023-11-19T05:07:22;7.67;51.92
70826;SHT31;58446;41.490;22.098;2023-11-19T05:09:48;7.67;52.04
70826;SHT31;58446;41.490;22.098;2023-11-19T05:12:13;7.62;52.07
70826;SHT31;58446;41.490;22.098;2023-11-19T05:14:39;7.62;52.23
70826;SHT31;58446;41.490;22.098;2023-11-19T05:17:05;7.74;52.12
70826;SHT31;58446;41.490;22.098;2023-11-19T05:19:33;7.84;52.21
70826;SHT31;58446;41.490;22.098;2023-11-19T05:21:58;7.78;52.24
70826;SHT31;58446;41.490;22.098;2023-11-19T05:24:24;7.78;52.47
70826;SHT31;58446;41.490;22.098;2023-11-19T05:26:51;7.64;52.22
70826;SHT31;58446;41.490;22.098;2023-11-19T05:29:17;7.59;52.89
70826;SHT31;58446;41.490;22.098;2023-11-19T05:31:43;7.70;52.71
70826;SHT31;58446;41.490;22.098;2023-11-19T05:34:08;7.71;52.16
70826;SHT31;58446;41.490;22.098;2023-11-19T05:36:34;7.71;52.37
70826;SHT31;58446;41.490;22.098;2023-11-19T05:39:00;7.74;52.56
70826;SHT31;58446;41.490;22.098;2023-11-19T05:41:30;7.75;52.61
70826;SHT31;58446;41.490;22.098;2023-11-19T05:43:55;7.84;52.30
70826;SHT31;58446;41.490;22.098;2023-11-19T05:46:21;7.69;51.84
70826;SHT31;58446;41.490;22.098;2023-11-19T05:48:48;7.71;52.13
70826;SHT31;58446;41.490;22.098;2023-11-19T05:51:13;7.75;51.72
70826;SHT31;58446;41.490;22.098;2023-11-19T05:53:40;7.59;51.83
70826;SHT31;58446;41.490;22.098;2023-11-19T05:56:06;7.67;52.19
70826;SHT31;58446;41.490;22.098;2023-11-19T05:58:35;7.66;52.04
70826;SHT31;58446;41.490;22.098;2023-11-19T06:01:01;7.66;52.27
70826;SHT31;58446;41.490;22.098;2023-11-19T06:03:28;7.66;52.25
70826;SHT31;58446;41.490;22.098;2023-11-19T06:05:54;7.62;52.40
70826;SHT31;58446;41.490;22.098;2023-11-19T06:08:22;7.73;52.35
70826;SHT31;58446;41.490;22.098;2023-11-19T06:10:48;7.75;52.47
70826;SHT31;58446;41.490;22.098;2023-11-19T06:13:16;7.67;52.80
70826;SHT31;58446;41.490;22.098;2023-11-19T06:15:42;7.71;52.80
70826;SHT31;58446;41.490;22.098;2023-11-19T06:18:08;7.88;52.66
70826;SHT31;58446;41.490;22.098;2023-11-19T06:20:34;8.63;50.86
70826;SHT31;58446;41.490;22.098;2023-11-19T06:23:00;9.27;49.13
70826;SHT31;58446;41.490;22.098;2023-11-19T06:25:26;9.08;49.13
70826;SHT31;58446;41.490;22.098;2023-11-19T06:27:52;8.86;49.33
70826;SHT31;58446;41.490;22.098;2023-11-19T06:30:18;8.72;50.08
70826;SHT31;58446;41.490;22.098;2023-11-19T06:32:44;8.83;49.69
70826;SHT31;58446;41.490;22.098;2023-11-19T06:35:10;8.96;49.37
70826;SHT31;58446;41.490;22.098;2023-11-19T06:37:39;9.37;47.94
70826;SHT31;58446;41.490;22.098;2023-11-19T06:40:05;9.01;48.95
70826;SHT31;58446;41.490;22.098;2023-11-19T06:42:31;8.83;50.22
70826;SHT31;58446;41.490;22.098;2023-11-19T06:44:57;8.69;49.79
70826;SHT31;58446;41.490;22.098;2023-11-19T06:47:26;8.69;50.08
70826;SHT31;58446;41.490;22.098;2023-11-19T06:49:53;8.67;50.37
70826;SHT31;58446;41.490;22.098;2023-11-19T06:52:19;8.75;50.50
70826;SHT31;58446;41.490;22.098;2023-11-19T06:54:45;8.88;50.13
70826;SHT31;58446;41.490;22.098;2023-11-19T06:57:13;9.10;49.64
70826;SHT31;58446;41.490;22.098;2023-11-19T06:59:39;9.75;48.24
70826;SHT31;58446;41.490;22.098;2023-11-19T07:02:06;10.33;47.06
70826;SHT31;58446;41.490;22.098;2023-11-19T07:04:32;10.87;45.75
70826;SHT31;58446;41.490;22.098;2023-11-19T07:07:00;11.36;44.21
70826;SHT31;58446;41.490;22.098;2023-11-19T07:09:27;11.59;43.74
70826;SHT31;58446;41.490;22.098;2023-11-19T07:11:54;11.94;43.03
70826;SHT31;58446;41.490;22.098;2023-11-19T07:14:20;11.76;43.02
70826;SHT31;58446;41.490;22.098;2023-11-19T07:16:45;11.87;43.21
70826;SHT31;58446;41.490;22.098;2023-11-19T07:19:15;12.15;42.61
70826;SHT31;58446;41.490;22.098;2023-11-19T07:21:41;12.32;41.96
70826;SHT31;58446;41.490;22.098;2023-11-19T07:24:10;12.48;41.53
70826;SHT31;58446;41.490;22.098;2023-11-19T07:26:39;12.66;41.72
70826;SHT31;58446;41.490;22.098;2023-11-19T07:29:05;12.69;41.66
70826;SHT31;58446;41.490;22.098;2023-11-19T07:31:32;12.87;41.54
70826;SHT31;58446;41.490;22.098;2023-11-19T07:33:58;12.73;41.52
70826;SHT31;58446;41.490;22.098;2023-11-19T07:36:24;12.85;41.18
70826;SHT31;58446;41.490;22.098;2023-11-19T07:38:49;12.85;41.00
70826;SHT31;58446;41.490;22.098;2023-11-19T07:41:16;12.95;40.90
70826;SHT31;58446;41.490;22.098;2023-11-19T07:43:44;12.68;41.22
70826;SHT31;58446;41.490;22.098;2023-11-19T07:46:11;12.76;41.08
70826;SHT31;58446;41.490;22.098;2023-11-19T07:48:39;12.97;40.78
70826;SHT31;58446;41.490;22.098;2023-11-19T07:51:04;13.06;40.58
70826;SHT31;58446;41.490;22.098;2023-11-19T07:53:30;12.97;40.51
70826;SHT31;58446;41.490;22.098;2023-11-19T07:55:56;12.82;41.01
70826;SHT31;58446;41.490;22.098;2023-11-19T07:58:21;13.03;40.82
70826;SHT31;58446;41.490;22.098;2023-11-19T08:00:47;12.72;41.17
70826;SHT31;58446;41.490;22.098;2023-11-19T08:03:13;11.78;41.49
70826;SHT31;58446;41.490;22.098;2023-11-19T08:05:38;11.65;41.74
70826;SHT31;58446;41.490;22.098;2023-11-19T08:08:04;11.39;42.17
70826;SHT31;58446;41.490;22.098;2023-11-19T08:10:30;11.20;42.44
70826;SHT31;58446;41.490;22.098;2023-11-19T08:12:56;11.19;42.36
70826;SHT31;58446;41.490;22.098;2023-11-19T08:15:21;11.25;42.74
70826;SHT31;58446;41.490;22.098;2023-11-19T08:17:47;11.08;42.72
70826;SHT31;58446;41.490;22.098;2023-11-19T08:20:13;10.87;42.60
70826;SHT31;58446;41.490;22.098;2023-11-19T08:22:39;10.85;42.68
70826;SHT31;58446;41.490;22.098;2023-11-19T08:25:06;11.08;43.01
70826;SHT31;58446;41.490;22.098;2023-11-19T08:27:32;11.32;43.26
70826;SHT31;58446;41.490;22.098;2023-11-19T08:29:58;11.27;42.64
70826;SHT31;58446;41.490;22.098;2023-11-19T08:32:27;11.32;42.76
70826;SHT31;58446;41.490;22.098;2023-11-19T08:34:53;11.35;42.54
70826;SHT31;58446;41.490;22.098;2023-11-19T08:37:19;11.65;42.54
70826;SHT31;58446;41.490;22.098;2023-11-19T08:39:47;11.90;42.02
70826;SHT31;58446;41.490;22.098;2023-11-19T08:42:13;11.66;41.60
70826;SHT31;58446;41.490;22.098;2023-11-19T08:44:38;11.78;41.78
70826;SHT31;58446;41.490;22.098;2023-11-19T08:47:04;11.56;42.04
70826;SHT31;58446;41.490;22.098;2023-11-19T08:49:30;11.63;42.15
70826;SHT31;58446;41.490;22.098;2023-11-19T08:51:56;11.76;42.10
70826;SHT31;58446;41.490;22.098;2023-11-19T08:54:21;11.60;42.34
70826;SHT31;58446;41.490;22.098;2023-11-19T08:56:48;11.65;42.32
70826;SHT31;58446;41.490;22.098;2023-11-19T08:59:14;11.63;42.49
70826;SHT31;58446;41.490;22.098;2023-11-19T09:01:40;11.43;42.65
70826;SHT31;58446;41.490;22.098;2023-11-19T09:04:06;11.42;42.53
70826;SHT31;58446;41.490;22.098;2023-11-19T09:06:32;11.60;42.76
70826;SHT31;58446;41.490;22.098;2023-11-19T09:08:58;11.36;42.41
70826;SHT31;58446;41.490;22.098;2023-11-19T09:11:28;10.79;42.49
70826;SHT31;58446;41.490;22.098;2023-11-19T09:13:53;10.79;42.86
70826;SHT31;58446;41.490;22.098;2023-11-19T09:16:19;10.84;42.93
70826;SHT31;58446;41.490;22.098;2023-11-19T09:18:45;10.68;43.14
70826;SHT31;58446;41.490;22.098;2023-11-19T09:21:11;10.61;43.29
70826;SHT31;58446;41.490;22.098;2023-11-19T09:23:37;10.63;43.06
70826;SHT31;58446;41.490;22.098;2023-11-19T09:26:08;10.68;43.06
70826;SHT31;58446;41.490;22.098;2023-11-19T09:28:35;10.78;43.36
70826;SHT31;58446;41.490;22.098;2023-11-19T09:31:01;10.98;43.44
70826;SHT31;58446;41.490;22.098;2023-11-19T09:33:30;11.29;43.05
70826;SHT31;58446;41.490;22.098;2023-11-19T09:35:56;11.47;42.93
70826;SHT31;58446;41.490;22.098;2023-11-19T09:38:23;11.08;42.38
70826;SHT31;58446;41.490;22.098;2023-11-19T09:40:49;11.08;43.13
70826;SHT31;58446;41.490;22.098;2023-11-19T09:43:15;11.26;43.19
70826;SHT31;58446;41.490;22.098;2023-11-19T09:45:51;11.14;42.61
70826;SHT31;58446;41.490;22.098;2023-11-19T09:48:18;11.11;42.62
70826;SHT31;58446;41.490;22.098;2023-11-19T09:50:47;11.37;43.28
70826;SHT31;58446;41.490;22.098;2023-11-19T09:53:14;11.70;42.71
70826;SHT31;58446;41.490;22.098;2023-11-19T09:55:42;11.73;42.46
70826;SHT31;58446;41.490;22.098;2023-11-19T09:58:08;11.97;42.43
70826;SHT31;58446;41.490;22.098;2023-11-19T10:00:34;12.25;42.10
70826;SHT31;58446;41.490;22.098;2023-11-19T10:03:00;12.42;41.76
70826;SHT31;58446;41.490;22.098;2023-11-19T10:05:31;12.56;41.48
70826;SHT31;58446;41.490;22.098;2023-11-19T10:07:56;12.58;42.18
70826;SHT31;58446;41.490;22.098;2023-11-19T10:10:22;12.08;41.52
70826;SHT31;58446;41.490;22.098;2023-11-19T10:12:50;11.49;42.40
70826;SHT31;58446;41.490;22.098;2023-11-19T10:15:24;11.76;43.19
70826;SHT31;58446;41.490;22.098;2023-11-19T10:17:51;11.95;42.63
70826;SHT31;58446;41.490;22.098;2023-11-19T10:20:17;11.53;42.78
70826;SHT31;58446;41.490;22.098;2023-11-19T10:22:42;11.67;43.47
70826;SHT31;58446;41.490;22.098;2023-11-19T10:25:24;11.94;42.94
70826;SHT31;58446;41.490;22.098;2023-11-19T10:27:51;12.13;42.32
70826;SHT31;58446;41.490;22.098;2023-11-19T10:30:24;12.27;42.65
70826;SHT31;58446;41.490;22.098;2023-11-19T10:33:08;12.28;42.25
70826;SHT31;58446;41.490;22.098;2023-11-19T10:35:35;12.07;42.70
70826;SHT31;58446;41.490;22.098;2023-11-19T10:38:04;12.20;42.49
70826;SHT31;58446;41.490;22.098;2023-11-19T10:40:38;12.21;42.70
70826;SHT31;58446;41.490;22.098;2023-11-19T10:43:07;12.36;42.27
70826;SHT31;58446;41.490;22.098;2023-11-19T10:45:37;12.48;42.05
70826;SHT31;58446;41.490;22.098;2023-11-19T10:48:04;12.15;42.22
70826;SHT31;58446;41.490;22.098;2023-11-19T10:50:33;11.97;42.74
70826;SHT31;58446;41.490;22.098;2023-11-19T10:53:00;12.21;43.43
70826;SHT31;58446;41.490;22.098;2023-11-19T10:55:33;12.41;42.80
70826;SHT31;58446;41.490;22.098;2023-11-19T10:58:04;12.45;42.45
70826;SHT31;58446;41.490;22.098;2023-11-19T11:00:44;12.52;42.06
70826;SHT31;58446;41.490;22.098;2023-11-19T11:03:20;12.65;42.20
70826;SHT31;58446;41.490;22.098;2023-11-19T11:05:49;12.53;42.08
70826;SHT31;58446;41.490;22.098;2023-11-19T11:08:15;11.97;42.15
70826;SHT31;58446;41.490;22.098;2023-11-19T11:10:46;12.05;42.39
70826;SHT31;58446;41.490;22.098;2023-11-19T11:13:14;11.63;42.51
70826;SHT31;58446;41.490;22.098;2023-11-19T11:15:40;11.69;43.24
70826;SHT31;58446;41.490;22.098;2023-11-19T11:18:08;11.86;43.15
70826;SHT31;58446;41.490;22.098;2023-11-19T11:20:35;11.77;42.74
70826;SHT31;58446;41.490;22.098;2023-11-19T11:23:06;11.56;42.28
70826;SHT31;58446;41.490;22.098;2023-11-19T11:28:30;12.01;42.99
70826;SHT31;58446;41.490;22.098;2023-11-19T11:39:34;12.56;42.17
70826;SHT31;58446;41.490;22.098;2023-11-19T11:44:59;12.56;42.01
70826;SHT31;58446;41.490;22.098;2023-11-19T11:47:26;12.53;42.33
70826;SHT31;58446;41.490;22.098;2023-11-19T11:49:52;12.27;42.74
70826;SHT31;58446;41.490;22.098;2023-11-19T11:52:17;12.08;42.78
70826;SHT31;58446;41.490;22.098;2023-11-19T11:54:44;12.11;43.09
70826;SHT31;58446;41.490;22.098;2023-11-19T11:57:14;12.14;42.67
70826;SHT31;58446;41.490;22.098;2023-11-19T12:02:12;12.05;43.80
70826;SHT31;58446;41.490;22.098;2023-11-19T12:04:42;11.74;43.06
70826;SHT31;58446;41.490;22.098;2023-11-19T12:07:17;11.67;43.01
70826;SHT31;58446;41.490;22.098;2023-11-19T12:09:48;11.40;43.09
70826;SHT31;58446;41.490;22.098;2023-11-19T12:12:18;11.35;43.73
70826;SHT31;58446;41.490;22.098;2023-11-19T12:20:00;11.56;44.28
70826;SHT31;58446;41.490;22.098;2023-11-19T12:22:27;11.59;44.32
70826;SHT31;58446;41.490;22.098;2023-11-19T12:24:56;11.56;43.60
70826;SHT31;58446;41.490;22.098;2023-11-19T12:27:22;11.44;43.66
70826;SHT31;58446;41.490;22.098;2023-11-19T12:29:48;11.56;44.44
70826;SHT31;58446;41.490;22.098;2023-11-19T12:32:14;11.47;44.44
70826;SHT31;58446;41.490;22.098;2023-11-19T12:34:40;11.33;44.30
70826;SHT31;58446;41.490;22.098;2023-11-19T12:37:06;11.49;44.63
70826;SHT31;58446;41.490;22.098;2023-11-19T12:39:32;11.52;44.23
70826;SHT31;58446;41.490;22.098;2023-11-19T12:41:57;11.59;44.21
70826;SHT31;58446;41.490;22.098;2023-11-19T12:44:26;11.59;44.61
70826;SHT31;58446;41.490;22.098;2023-11-19T12:47:07;11.47;44.17
70826;SHT31;58446;41.490;22.098;2023-11-19T12:49:33;11.56;44.24
70826;SHT31;58446;41.490;22.098;2023-11-19T12:51:59;11.62;44.07
70826;SHT31;58446;41.490;22.098;2023-11-19T12:54:35;11.53;44.04
70826;SHT31;58446;41.490;22.098;2023-11-19T12:57:01;11.69;44.02
70826;SHT31;58446;41.490;22.098;2023-11-19T12:59:26;11.91;44.13
70826;SHT31;58446;41.490;22.098;2023-11-19T13:01:59;11.93;43.98
70826;SHT31;58446;41.490;22.098;2023-11-19T13:04:29;11.93;43.86
70826;SHT31;58446;41.490;22.098;2023-11-19T13:06:58;12.02;44.14
70826;SHT31;58446;41.490;22.098;2023-11-19T13:09:28;12.11;43.75
70826;SHT31;58446;41.490;22.098;2023-11-19T13:11:55;12.02;44.06
70826;SHT31;58446;41.490;22.098;2023-11-19T13:14:22;12.07;44.18
70826;SHT31;58446;41.490;22.098;2023-11-19T13:16:48;12.04;43.96
70826;SHT31;58446;41.490;22.098;2023-11-19T13:19:15;12.13;44.12
70826;SHT31;58446;41.490;22.098;2023-11-19T13:21:45;12.24;43.72
70826;SHT31;58446;41.490;22.098;2023-11-19T13:24:13;12.21;43.89
70826;SHT31;58446;41.490;22.098;2023-11-19T13:26:39;12.20;44.10
70826;SHT31;58446;41.490;22.098;2023-11-19T13:29:05;12.22;43.67
70826;SHT31;58446;41.490;22.098;2023-11-19T13:31:31;12.20;43.48
70826;SHT31;58446;41.490;22.098;2023-11-19T13:33:56;11.97;43.61
70826;SHT31;58446;41.490;22.098;2023-11-19T13:36:24;12.11;43.27
70826;SHT31;58446;41.490;22.098;2023-11-19T13:38:50;12.13;43.69
70826;SHT31;58446;41.490;22.098;2023-11-19T13:41:16;12.14;43.87
70826;SHT31;58446;41.490;22.098;2023-11-19T13:43:42;12.20;43.82
70826;SHT31;58446;41.490;22.098;2023-11-19T13:46:09;12.15;43.31
70826;SHT31;58446;41.490;22.098;2023-11-19T13:48:37;12.21;43.39
70826;SHT31;58446;41.490;22.098;2023-11-19T13:51:03;12.11;41.56
70826;SHT31;58446;41.490;22.098;2023-11-19T13:53:29;12.35;42.52
70826;SHT31;58446;41.490;22.098;2023-11-19T13:55:55;12.44;42.49
70826;SHT31;58446;41.490;22.098;2023-11-19T13:58:21;12.44;43.70
70826;SHT31;58446;41.490;22.098;2023-11-19T14:00:46;12.29;44.11
70826;SHT31;58446;41.490;22.098;2023-11-19T14:03:12;12.27;43.57
70826;SHT31;58446;41.490;22.098;2023-11-19T14:05:38;12.17;43.37
70826;SHT31;58446;41.490;22.098;2023-11-19T14:08:06;12.21;42.89
70826;SHT31;58446;41.490;22.098;2023-11-19T14:10:39;12.27;43.81
70826;SHT31;58446;41.490;22.098;2023-11-19T14:13:06;12.25;43.79
70826;SHT31;58446;41.490;22.098;2023-11-19T14:15:32;12.11;44.30
70826;SHT31;58446;41.490;22.098;2023-11-19T14:17:57;12.04;44.89
70826;SHT31;58446;41.490;22.098;2023-11-19T14:20:23;12.08;44.65
70826;SHT31;58446;41.490;22.098;2023-11-19T14:22:49;11.94;44.56
70826;SHT31;58446;41.490;22.098;2023-11-19T14:25:16;11.91;44.90
70826;SHT31;58446;41.490;22.098;2023-11-19T14:27:43;11.87;45.06
70826;SHT31;58446;41.490;22.098;2023-11-19T14:30:10;11.90;45.06
70826;SHT31;58446;41.490;22.098;2023-11-19T14:32:37;11.77;44.75
70826;SHT31;58446;41.490;22.098;2023-11-19T14:35:03;11.66;44.97
70826;SHT31;58446;41.490;22.098;2023-11-19T14:37:30;11.50;45.03
70826;SHT31;58446;41.490;22.098;2023-11-19T14:39:58;11.52;45.21
70826;SHT31;58446;41.490;22.098;2023-11-19T14:42:24;11.49;46.18
70826;SHT31;58446;41.490;22.098;2023-11-19T14:44:53;11.43;45.96
70826;SHT31;58446;41.490;22.098;2023-11-19T14:47:20;11.19;45.87
70826;SHT31;58446;41.490;22.098;2023-11-19T14:49:48;11.33;45.21
70826;SHT31;58446;41.490;22.098;2023-11-19T14:52:14;11.33;44.96
70826;SHT31;58446;41.490;22.098;2023-11-19T14:54:40;11.26;45.86
70826;SHT31;58446;41.490;22.098;2023-11-19T14:57:06;11.27;45.64
70826;SHT31;58446;41.490;22.098;2023-11-19T14:59:34;11.26;46.19
70826;SHT31;58446;41.490;22.098;2023-11-19T15:02:00;11.27;46.17
70826;SHT31;58446;41.490;22.098;2023-11-19T15:04:28;11.02;47.19
70826;SHT31;58446;41.490;22.098;2023-11-19T15:06:58;10.92;48.97
70826;SHT31;58446;41.490;22.098;2023-11-19T15:09:24;10.74;49.02
70826;SHT31;58446;41.490;22.098;2023-11-19T15:11:51;10.74;47.61
70826;SHT31;58446;41.490;22.098;2023-11-19T15:14:21;10.61;48.06
70826;SHT31;58446;41.490;22.098;2023-11-19T15:16:48;10.60;49.67
70826;SHT31;58446;41.490;22.098;2023-11-19T15:19:17;10.46;51.54
70826;SHT31;58446;41.490;22.098;2023-11-19T15:21:42;10.34;53.12
70826;SHT31;58446;41.490;22.098;2023-11-19T15:24:09;10.36;54.32
70826;SHT31;58446;41.490;22.098;2023-11-19T15:26:36;10.20;54.12
70826;SHT31;58446;41.490;22.098;2023-11-19T15:29:03;10.29;54.45
70826;SHT31;58446;41.490;22.098;2023-11-19T15:31:29;10.06;55.69
70826;SHT31;58446;41.490;22.098;2023-11-19T15:33:55;10.17;53.41
70826;SHT31;58446;41.490;22.098;2023-11-19T15:36:21;10.26;54.34
70826;SHT31;58446;41.490;22.098;2023-11-19T15:38:47;10.30;53.59
70826;SHT31;58446;41.490;22.098;2023-11-19T15:41:13;10.17;53.64
70826;SHT31;58446;41.490;22.098;2023-11-19T15:43:39;10.10;53.15